Tiempo atmosférico en la estación meteorológica de Sant Jaume d'Enveja, Tarragona (1 m.)



Fecha
DESCASC
Temp. máxima en grados centígrados (hora)
DESCASC
Temp. mínima en grados centígrados (hora)
DESCASC
Temp. media en grados centígrados
DESCASC
Racha de viento máxima en m/sg (hora)
DESCASC
Velocidad máxima media en intervalos de 10 minutos(hora)
DESCASC
Precipitaciones diarias en mm
DESCASC
Precipitaciones de 00:00 a 06:00 en mm
DESCASC
Precipitaciones de 06:00 a 12:00 en mm
DESCASC
Precipitaciones de 12:00 a 18:00 en mm
DESCASC
Precipitaciones de 18:00 a 24:00 en mm
DESCASC
27-07-2019 31.8 (17:00) 22.5 (00:00) 27.1 15.28 (23:59) 5.56 (17:10) 0.8 0 0 0 0.8
30-07-2019 31.1 (14:50) 21.3 (00:00) 26.2 8.89 (17:10) 6.39 (16:50) 0 0 0 0 0
12-08-2019 31.1 (15:50) 21.5 (00:00) 26.3 11.94 (08:20) 7.5 (07:40) 0 0 0 0 0
02-08-2019 30.8 (13:00) 21.4 (00:00) 26.1 7.22 (15:40) 5.28 (15:40) 0 0 0 0 0
28-07-2019 30.7 (15:00) 19.6 (00:00) 25.2 17.22 (03:50) 9.17 (03:50) 0 0 0 0 0
09-08-2019 30.7 (15:40) 24.6 (00:00) 27.7 6.94 (17:30) 5 (17:00) 0 0 0 0 0
06-08-2019 30.3 (15:50) 24.4 (00:00) 27.3 7.22 (02:00) 3.06 (14:40) 0 0 0 0 0
08-08-2019 30.2 (15:50) 24.7 (00:00) 27.5 7.78 (16:00) 5.83 (17:10) 0 0 0 0 0
07-08-2019 30.2 (14:30) 24.6 (00:00) 27.4 5.56 (15:10) 3.33 (15:00) 0 0 0 0 0
10-08-2019 30 (11:20) 24.2 (00:00) 27.1 13.06 (08:00) 7.5 (08:30) 0 0 0 0 0
11-08-2019 30 (17:00) 25.3 (00:00) 27.6 6.67 (15:10) 4.17 (16:20) 0 0 0 0 0
22-08-2019 29.9 (14:00) 20.8 (00:00) 25.3 7.5 (17:20) 5.28 (17:40) 0 0 0 0 0
05-08-2019 29.8 (15:10) 23.9 (00:00) 26.8 5 (16:00) 3.06 (16:20) 0 0 0 0 0
18-08-2019 29.5 (13:50) 24.4 (00:00) 26.9 6.67 (17:50) 5 (18:30) 0 0 0 0 0
26-07-2019 29.5 (15:30) 24.3 (00:00) 26.9 5.56 (19:20) 2.5 (02:40) 0.2 0 0 0.1 0.1
17-08-2019 29.1 (14:20) 23.5 (00:00) 26.3 6.67 (15:10) 4.44 (13:40) 0 0 0 0 0
15-08-2019 29.1 (14:40) 22.6 (00:00) 25.9 8.33 (17:50) 5.83 (17:30) 0 0 0 0 0
24-08-2019 29 (17:00) 20.5 (00:00) 24.8 5.83 (15:20) 3.61 (17:10) 0 0 0 0 0
29-07-2019 29 (15:00) 19.7 (00:00) 24.4 7.22 (19:30) 5 (19:30) 0 0 0 0 0
04-08-2019 29 (14:00) 23 (00:00) 26 7.5 (15:10) 5 (17:10) 0 0 0 0 0
16-08-2019 28.9 (13:30) 22.4 (00:00) 25.6 6.94 (16:10) 4.72 (16:50) 0 0 0 0 0
03-08-2019 28.7 (16:00) 21.6 (00:00) 25.2 8.61 (18:10) 5.56 (18:20) 0 0 0 0 0
01-08-2019 28.5 (17:10) 22.5 (00:00) 25.5 6.39 (14:40) 2.22 (14:40) 0 0 0 0 0
14-08-2019 28.3 (16:10) 18.3 (00:00) 23.3 8.61 (15:30) 6.39 (18:00) 0 0 0 0 0
23-08-2019 28.3 (13:40) 20.9 (00:00) 24.6 7.22 (15:20) 4.44 (15:40) 0 0 0 0 0
13-08-2019 28.2 (14:20) 19.2 (00:00) 23.7 7.5 (17:10) 5 (16:40) 0 0 0 0 0
19-08-2019 28 (13:00) 23.5 (00:00) 25.8 9.44 (06:50) 5.56 (06:30) 0 0 0 0 0
31-07-2019 27.8 (13:10) 21.1 (00:00) 24.4 10.28 (10:10) 6.11 (10:00) 0 0 0 0 0
21-08-2019 27.7 (14:20) 20.3 (00:00) 24 9.17 (16:10) 6.39 (16:20) 0.2 0 0 0 0.2
20-08-2019 25 (01:00) 20.1 (00:00) 22.6 11.94 (11:10) 6.67 (11:40) 6.9 0 2.1 4.8 0

Gráficas

Temp. máximas Temp. mínimas Temp. medias Precipitaciones Rachas de viento máximas Velocidades máximas media en intervalos de 10 minutos

Datos horarios

Fecha y hora oficial Temperatura (ºC) Velocidad del viento (km/h) Dirección del viento Racha (km/h) Dirección de racha Precipitación (mm) Presión (hPa) Tendencia (hPa) Humedad (%)
2019-08-24 23:00:00 24.2 0 Calma 5 Sudeste 0 -- -- 85
2019-08-24 22:00:00 24 0 Calma 6 Sudeste 0 -- -- 86
2019-08-24 21:00:00 24.6 6 Sudeste 9 Sudeste 0 -- -- 80
2019-08-24 20:00:00 26.2 7 Sur 11 Sudeste 0 -- -- 76
2019-08-24 19:00:00 27.1 8 Sudeste 14 Sudeste 0 -- -- 66
2019-08-24 18:00:00 28.1 11 Sur 19 Sudeste 0 -- -- 64
2019-08-24 17:00:00 28.3 12 Sur 21 Sudeste 0 -- -- 61
2019-08-24 16:00:00 28.7 11 Sudeste 21 Sudeste 0 -- -- 59
2019-08-24 15:00:00 28.1 10 Sudeste 18 Este 0 -- -- 61
2019-08-24 14:00:00 28 8 Sudeste 14 Sudeste 0 -- -- 66
2019-08-24 13:00:00 27.8 6 Sudeste 13 Sudeste 0 -- -- 65
2019-08-24 12:00:00 27.3 3 Sudeste 10 Sudeste 0 -- -- 72
2019-08-24 11:00:00 26.2 0 Calma 7 Sudeste 0 -- -- 77
2019-08-24 10:00:00 24.1 0 Calma 5 Noroeste 0 -- -- 92
2019-08-24 09:00:00 22.1 0 Calma 6 Oeste 0 -- -- 94
2019-08-24 08:00:00 20.7 0 Calma 5 Norte 0 -- -- 94
2019-08-24 07:00:00 21.1 0 Calma -- -- 0 -- -- 94
2019-08-24 06:00:00 21.5 0 Calma -- -- 0 -- -- 94
2019-08-24 05:00:00 21.2 0 Calma 0 Calma 0 -- -- 93
2019-08-24 04:00:00 22.3 0 Calma -- -- 0 -- -- 92
2019-08-24 03:00:00 22.3 0 Calma -- -- 0 -- -- 92
2019-08-24 02:00:00 22.6 0 Calma 5 Noroeste 0 -- -- 91
2019-08-24 01:00:00 23 0 Calma -- -- 0 -- -- 86
2019-08-24 00:00:00 23.1 0 Calma -- -- 0 -- -- 87
2019-08-23 23:00:00 23.7 0 Calma -- -- 0 -- -- 88
2019-08-23 22:00:00 24 0 Calma -- -- 0 -- -- 81
2019-08-23 21:00:00 25.2 0 Calma -- -- 0 -- -- 72
2019-08-23 20:00:00 26.7 0 Calma 7 Sudeste 0 -- -- 70
2019-08-23 19:00:00 27.9 5 Sur 13 Sudeste 0 -- -- 60
2019-08-23 18:00:00 27.7 10 Sudeste 20 Sudeste 0 -- -- 62
2019-08-23 17:00:00 27.2 15 Sudeste 23 Sudeste 0 -- -- 61
2019-08-23 16:00:00 27.9 16 Sudeste 26 Este 0 -- -- 67
2019-08-23 15:00:00 27.9 14 Sudeste 20 Sudeste 0 -- -- 73
2019-08-23 14:00:00 27.7 13 Sudeste 21 Sudeste 0 -- -- 72
2019-08-23 13:00:00 27.4 7 Sudeste 16 Sudeste 0 -- -- 67
2019-08-23 12:00:00 27.5 2 Este 13 Sudeste 0 -- -- 66
2019-08-23 11:00:00 26 0 Calma -- -- 0 -- -- 78
2019-08-23 10:00:00 23.6 0 Calma -- -- 0 -- -- 90
2019-08-23 09:00:00 21.9 0 Calma 8 Oeste 0 -- -- 94
2019-08-23 08:00:00 20.9 0 Calma 9 Oeste 0 -- -- 94
2019-08-23 07:00:00 21.6 3 Oeste 7 Noroeste 0 -- -- 94
2019-08-23 06:00:00 21.9 0 Calma -- -- 0 -- -- 93
2019-08-23 05:00:00 21.7 0 Calma 6 Noroeste 0 -- -- 93
2019-08-23 04:00:00 22.3 0 Calma 9 Noroeste 0 -- -- 92
2019-08-23 03:00:00 22.7 2 Sudoeste 7 Sudoeste 0 -- -- 89
2019-08-23 02:00:00 23 4 Sur 7 Sur 0 -- -- 88
2019-08-23 01:00:00 23.1 5 Sur 7 Sur 0 -- -- 88
2019-08-23 00:00:00 23.3 4 Sudeste 9 Sur 0 -- -- 87
2019-08-22 23:00:00 22.8 8 Sur 13 Sur 0 -- -- 90
2019-08-22 22:00:00 22.8 10 Sur 14 Sur 0 -- -- 89
2019-08-22 21:00:00 23.2 9 Sur 16 Sur 0 -- -- 85
2019-08-22 20:00:00 25.4 13 Sur 25 Sur 0 -- -- 72
2019-08-22 19:00:00 26.6 14 Sur 26 Sur 0 -- -- 64
2019-08-22 18:00:00 27.1 18 Sur 27 Sur 0 -- -- 62
2019-08-22 17:00:00 27.9 17 Sur 23 Sur 0 -- -- 56
2019-08-22 16:00:00 27.7 15 Sur 21 Sur 0 -- -- 54
2019-08-22 15:00:00 28.7 12 Sur 18 Sudeste 0 -- -- 46
2019-08-22 14:00:00 29.1 2 Este 13 Este 0 -- -- 45
2019-08-22 13:00:00 28.6 4 Norte 20 Norte 0 -- -- 42
2019-08-22 12:00:00 27 10 Norte 21 Norte 0 -- -- 48
2019-08-22 11:00:00 25.1 11 Norte 22 Norte 0 -- -- 54
2019-08-22 10:00:00 23.5 12 Norte 23 Norte 0 -- -- 60
2019-08-22 09:00:00 21.8 8 Noroeste 17 Noroeste 0 -- -- 72
2019-08-22 08:00:00 20.9 9 Noroeste 15 Noroeste 0 -- -- 79
2019-08-22 07:00:00 21.6 6 Norte 15 Noroeste 0 -- -- 82
2019-08-22 06:00:00 21.8 5 Noroeste 12 Noroeste 0 -- -- 92
2019-08-22 05:00:00 21.8 0 Calma 7 Noroeste 0 -- -- 94
2019-08-22 04:00:00 21.7 0 Calma 8 Noroeste 0 -- -- 94
2019-08-22 03:00:00 21.7 5 Oeste 13 Oeste 0 -- -- 94
2019-08-22 02:00:00 22.3 0 Calma 8 Sudeste 0 -- -- 92
2019-08-22 01:00:00 22.7 6 Noroeste 14 Norte 0 -- -- 91
2019-08-22 00:00:00 22.5 6 Norte 10 Norte 0 -- -- 91
2019-08-21 23:00:00 21.9 0 Calma 13 Sur 0 -- -- 91
2019-08-21 22:00:00 22.9 6 Oeste 19 Oeste 0.1 -- -- 91
2019-08-21 21:00:00 22.8 14 Sudoeste 22 Sudoeste 0.1 -- -- 91
2019-08-21 20:00:00 24 12 Sudoeste 26 Sudoeste 0 -- -- 82
2019-08-21 19:00:00 24.7 14 Sudoeste 30 Sudoeste 0 -- -- 77
2019-08-21 18:00:00 24.9 17 Sudoeste 27 Sur 0 -- -- 75
2019-08-21 17:00:00 25.5 19 Sur 33 Sur 0 -- -- 74
2019-08-21 16:00:00 26.6 21 Sur 30 Sur 0 -- -- 72
2019-08-21 15:00:00 26.9 19 Sur 29 Sur 0 -- -- 66
2019-08-21 14:00:00 27.4 17 Sur 24 Sur 0 -- -- 65
2019-08-21 13:00:00 26.9 10 Sudoeste 18 Sudoeste 0 -- -- 62
2019-08-21 12:00:00 25.8 8 Oeste 17 Sudoeste 0 -- -- 67
2019-08-21 11:00:00 24.3 9 Oeste 18 Oeste 0 -- -- 72
2019-08-21 10:00:00 22.7 5 Noroeste 11 Noroeste 0 -- -- 84
2019-08-21 09:00:00 21.9 3 Noroeste 9 Norte 0 -- -- 87
2019-08-21 08:00:00 21.2 5 Norte 10 Noroeste 0 -- -- 88
2019-08-21 07:00:00 20.4 6 Sudoeste 12 Sudoeste 0 -- -- 91
2019-08-21 06:00:00 20.6 3 Oeste 8 Oeste 0 -- -- 89
2019-08-21 05:00:00 20.8 0 Calma 6 Noroeste 0 -- -- 92
2019-08-21 04:00:00 20.9 0 Calma 7 Oeste 0 -- -- 91
2019-08-21 03:00:00 20.8 3 Oeste 9 Oeste 0 -- -- 92
2019-08-21 02:00:00 20.8 5 Oeste 9 Oeste 0 -- -- 91
2019-08-21 01:00:00 20.6 0 Calma 11 Noroeste 0 -- -- 89
2019-08-21 00:00:00 20.7 6 Noroeste 11 Norte 0 -- -- 89
2019-08-20 23:00:00 21 4 Noroeste 15 Norte 0 -- -- 89
2019-08-20 22:00:00 21.3 6 Noroeste 14 Noroeste 0 -- -- 87
2019-08-20 21:00:00 21.9 9 Noroeste 15 Noroeste 0 -- -- 82
2019-08-20 20:00:00 23.1 10 Noroeste 23 Noroeste 0 -- -- 77
2019-08-20 19:00:00 24 15 Noroeste 31 Noroeste 0 -- -- 72
2019-08-20 18:00:00 23.5 16 Norte 32 Norte 0 -- -- 73
2019-08-20 17:00:00 23.2 15 Norte 32 Noroeste 0 -- -- 76
2019-08-20 16:00:00 22.6 15 Norte 36 Norte 0 -- -- 78
2019-08-20 15:00:00 22.5 19 Norte 36 Norte 0 -- -- 80
2019-08-20 14:00:00 21.7 19 Noroeste 35 Norte 0.1 -- -- 83
2019-08-20 13:00:00 20.4 17 Norte 39 Norte 4.7 -- -- 92
2019-08-20 12:00:00 21.7 19 Norte 43 Noroeste 0 -- -- 83
2019-08-20 11:00:00 21.2 22 Norte 37 Noroeste 0.9 -- -- 91
2019-08-20 10:00:00 21 17 Norte 39 Norte 1.2 -- -- 94
2019-08-20 09:00:00 21.7 18 Norte 34 Noroeste 0 -- -- 89
2019-08-20 08:00:00 24.3 5 Este 21 Nordeste 0 -- -- 83
2019-08-20 07:00:00 24.3 5 Este 22 Nordeste 0 -- -- 87
2019-08-20 06:00:00 24.3 5 Este 21 Nordeste 0 -- -- 88
2019-08-20 05:00:00 24.5 6 Este 22 Nordeste 0 -- -- 89
2019-08-20 04:00:00 24.5 5 Este 25 Nordeste 0 -- -- 91
2019-08-20 03:00:00 24.7 8 Nordeste 22 Nordeste 0 -- -- 91
2019-08-20 02:00:00 24.6 5 Este 24 Nordeste 0 -- -- 92
2019-08-20 01:00:00 24.9 6 Nordeste 13 Nordeste 0 -- -- 92
2019-08-20 00:00:00 24.8 0 Calma 11 Nordeste 0 -- -- 92
2019-08-19 23:00:00 24.6 2 Nordeste 13 Este 0 -- -- 91
2019-08-19 22:00:00 25 4 Nordeste 13 Nordeste 0 -- -- 89
2019-08-19 21:00:00 25.2 4 Este 15 Nordeste 0 -- -- 89
2019-08-19 20:00:00 25.4 2 Este 14 Nordeste 0 -- -- 87
2019-08-19 19:00:00 25.6 0 Calma 15 Sudeste 0 -- -- 86
2019-08-19 18:00:00 26.4 2 Este 18 Nordeste 0 -- -- 83
2019-08-19 17:00:00 27.5 4 Este 22 Nordeste 0 -- -- 80
2019-08-19 16:00:00 26.8 4 Este 23 Sur 0 -- -- 82
2019-08-19 15:00:00 27.2 5 Este 24 Este 0 -- -- 81
2019-08-19 14:00:00 27 3 Este 20 Nordeste 0 -- -- 82
2019-08-19 13:00:00 27.6 4 Este 18 Nordeste 0 -- -- 81
2019-08-19 12:00:00 26.8 4 Este 27 Norte 0 -- -- 81
2019-08-19 11:00:00 26.1 16 Norte 33 Norte 0 -- -- 62
2019-08-19 10:00:00 24.8 18 Norte 32 Noroeste 0 -- -- 63
2019-08-19 09:00:00 24 15 Norte 32 Noroeste 0 -- -- 64
2019-08-19 08:00:00 23.5 17 Norte 31 Noroeste 0 -- -- 66
2019-08-19 07:00:00 23.8 18 Norte 34 Noroeste 0 -- -- 67
2019-08-19 06:00:00 23.8 16 Norte 26 Norte 0 -- -- 70
2019-08-19 05:00:00 24.4 11 Norte 19 Norte 0 -- -- 77
2019-08-19 04:00:00 25.3 0 Calma 12 Norte 0 -- -- 93
2019-08-19 03:00:00 25.4 3 Nordeste 9 Nordeste 0 -- -- 94
2019-08-19 02:00:00 25.4 3 Nordeste 7 Nordeste 0 -- -- 94
2019-08-19 01:00:00 25 0 Calma 9 Sudeste 0 -- -- 93
2019-08-19 00:00:00 25 0 Calma 3 Este 0 -- -- 93
2019-08-18 23:00:00 25.2 0 Calma 9 Sudeste 0 -- -- 93
2019-08-18 22:00:00 25 8 Sudeste 12 Sudeste 0 -- -- 93
2019-08-18 21:00:00 25.4 8 Sudeste 18 Sudeste 0 -- -- 91
2019-08-18 20:00:00 26.4 13 Sudeste 21 Sudeste 0 -- -- 88
2019-08-18 19:00:00 27.7 16 Sudeste 24 Sudeste 0 -- -- 82
2019-08-18 18:00:00 28.1 17 Sudeste 24 Sudeste 0 -- -- 80
2019-08-18 17:00:00 28.7 14 Sudeste 20 Sudeste 0 -- -- 81
2019-08-18 16:00:00 28.6 15 Sudeste 22 Sur 0 -- -- 77
2019-08-18 15:00:00 28.9 14 Sur 22 Sur 0 -- -- 78
2019-08-18 14:00:00 29.1 11 Sur 19 Sudeste 0 -- -- 73
2019-08-18 13:00:00 28 14 Sur 20 Sudeste 0 -- -- 77
2019-08-18 12:00:00 28.7 13 Sudeste 20 Sudeste 0 -- -- 78
2019-08-18 11:00:00 28.1 7 Sudeste 15 Sur 0 -- -- 77
2019-08-18 10:00:00 27 5 Sudeste 8 Sudeste 0 -- -- 81
2019-08-18 09:00:00 25.5 0 Calma -- -- 0 -- -- 89
2019-08-18 08:00:00 25 0 Calma 5 Oeste 0 -- -- 94
2019-08-18 07:00:00 25.1 0 Calma 9 Sudeste 0 -- -- 94
2019-08-18 06:00:00 24.5 6 Sur 10 Sudeste 0 -- -- 94
2019-08-18 05:00:00 24.7 7 Sur 13 Sudeste 0 -- -- 94
2019-08-18 04:00:00 24.8 9 Sur 13 Sudeste 0 -- -- 94
2019-08-18 03:00:00 24.9 9 Sur 14 Sur 0 -- -- 94
2019-08-18 02:00:00 24.9 9 Sudeste 13 Sudeste 0 -- -- 94
2019-08-18 01:00:00 25.1 5 Sur 7 Sudeste 0 -- -- 93
2019-08-18 00:00:00 25.2 6 Sur 8 Sudeste 0 -- -- 93
2019-08-17 23:00:00 25.4 4 Sur 6 Sur 0 -- -- 92
2019-08-17 22:00:00 25.3 3 Sudeste 8 Sur 0 -- -- 91
2019-08-17 21:00:00 25.8 6 Sudeste 9 Sur 0 -- -- 88
2019-08-17 20:00:00 26.9 8 Sur 15 Sur 0 -- -- 82
2019-08-17 19:00:00 27.6 10 Sur 18 Sur 0 -- -- 76
2019-08-17 18:00:00 27.7 13 Sur 21 Sudeste 0 -- -- 76
2019-08-17 17:00:00 27.9 13 Sur 22 Sur 0 -- -- 77
2019-08-17 16:00:00 28.8 14 Sur 24 Sudeste 0 -- -- 72
2019-08-17 15:00:00 28 15 Sudeste 23 Sur 0 -- -- 76
2019-08-17 14:00:00 27.9 15 Sudeste 23 Sudeste 0 -- -- 73
2019-08-17 13:00:00 28 14 Sudeste 22 Sudeste 0 -- -- 73
2019-08-17 12:00:00 28 13 Sudeste 21 Sudeste 0 -- -- 76
2019-08-17 11:00:00 27.8 12 Sudeste 19 Sudeste 0 -- -- 77
2019-08-17 10:00:00 26.7 11 Sudeste 18 Sudeste 0 -- -- 82
2019-08-17 09:00:00 25.7 8 Sudeste 13 Sudeste 0 -- -- 88
2019-08-17 08:00:00 24.4 5 Sur 9 Sudeste 0 -- -- 93
2019-08-17 07:00:00 23.8 4 Sudeste 6 Sudeste 0 -- -- 92
2019-08-17 06:00:00 23.8 0 Calma 4 Sudoeste 0 -- -- 92
2019-08-17 05:00:00 24 0 Calma 5 Sudoeste 0 -- -- 91
2019-08-17 04:00:00 24.1 0 Calma 8 Sudoeste 0 -- -- 92
2019-08-17 03:00:00 23.9 3 Sudoeste 8 Sudoeste 0 -- -- 90
2019-08-17 02:00:00 23.8 6 Sudoeste 13 Sudoeste 0 -- -- 89
2019-08-17 01:00:00 24 9 Sudoeste 15 Sudoeste 0 -- -- 88
2019-08-17 00:00:00 24.2 9 Sudoeste 13 Sur 0 -- -- 91
2019-08-16 23:00:00 24.8 10 Sur 17 Sur 0 -- -- 92
2019-08-16 22:00:00 24.8 13 Sur 19 Sur 0 -- -- 91
2019-08-16 21:00:00 25.1 12 Sur 20 Sur 0 -- -- 88
2019-08-16 20:00:00 26.2 14 Sur 22 Sur 0 -- -- 81
2019-08-16 19:00:00 27.3 14 Sur 23 Sur 0 -- -- 72
2019-08-16 18:00:00 27.7 15 Sur 23 Sur 0 -- -- 70
2019-08-16 17:00:00 28.3 16 Sur 25 Sur 0 -- -- 70
2019-08-16 16:00:00 28.4 15 Sur 24 Sur 0 -- -- 68
2019-08-16 15:00:00 28.5 14 Sur 23 Sudeste 0 -- -- 69
2019-08-16 14:00:00 28 12 Sur 20 Sur 0 -- -- 70
2019-08-16 13:00:00 28.2 10 Sudeste 18 Sudeste 0 -- -- 66
2019-08-16 12:00:00 27.7 4 Este 12 Sudeste 0 -- -- 62
2019-08-16 11:00:00 26.8 3 Nordeste 9 Norte 0 -- -- 61
2019-08-16 10:00:00 25.2 6 Norte 11 Norte 0 -- -- 64
2019-08-16 09:00:00 23 4 Norte 9 Noroeste 0 -- -- 75
2019-08-16 08:00:00 22.7 2 Noroeste 13 Norte 0 -- -- 81
2019-08-16 07:00:00 22.9 8 Norte 12 Norte 0 -- -- 80
2019-08-16 06:00:00 23.6 0 Calma 4 Noroeste 0 -- -- 94
2019-08-16 05:00:00 23.9 0 Calma -- -- 0 -- -- 94
2019-08-16 04:00:00 24.2 0 Calma 2 Sudeste 0 -- -- 93
2019-08-16 03:00:00 24.4 2 Sudeste 6 Sudeste 0 -- -- 91
2019-08-16 02:00:00 24.2 0 Calma -- -- 0 -- -- 91
2019-08-16 01:00:00 24.5 0 Calma 13 Sudeste 0 -- -- 91
2019-08-16 00:00:00 24.6 4 Sudeste 10 Sur 0 -- -- 89
2019-08-15 23:00:00 24.2 6 Sur 15 Sur 0 -- -- 89
2019-08-15 22:00:00 24.4 10 Sur 18 Sur 0 -- -- 89
2019-08-15 21:00:00 25.3 10 Sur 23 Sur 0 -- -- 87
2019-08-15 20:00:00 26.5 18 Sur 30 Sur 0 -- -- 78
2019-08-15 19:00:00 27 19 Sur 29 Sur 0 -- -- 73
2019-08-15 18:00:00 27.9 21 Sur 30 Sur 0 -- -- 70
2019-08-15 17:00:00 27.7 21 Sur 28 Sur 0 -- -- 69
2019-08-15 16:00:00 28.5 17 Sur 30 Sur 0 -- -- 75
2019-08-15 15:00:00 28.3 19 Sur 27 Sudeste 0 -- -- 73
2019-08-15 14:00:00 28.4 18 Sudeste 23 Sudeste 0 -- -- 72
2019-08-15 13:00:00 28.1 13 Sudeste 21 Sudeste 0 -- -- 71
2019-08-15 12:00:00 28.5 0 Calma 2 Sudeste 0 -- -- 67
2019-08-15 11:00:00 27.1 0 Calma 2 Noroeste 0 -- -- 75
2019-08-15 10:00:00 25.2 0 Calma 2 Noroeste 0 -- -- 75
2019-08-15 09:00:00 23.2 0 Calma 2 Norte 0 -- -- 93
2019-08-15 08:00:00 22.8 0 Calma 0 Calma 0 -- -- 94
2019-08-15 07:00:00 23.4 0 Calma 0 Calma 0 -- -- 94
2019-08-15 06:00:00 23.6 0 Calma 2 Norte 0 -- -- 94
2019-08-15 05:00:00 23.5 3 Norte 7 Norte 0 -- -- 94
2019-08-15 04:00:00 23.3 0 Calma 8 Norte 0 -- -- 94
2019-08-15 03:00:00 23.3 0 Calma 5 Sur 0 -- -- 94
2019-08-15 02:00:00 23.2 0 Calma 7 Sudoeste 0 -- -- 94
2019-08-15 01:00:00 23.6 5 Sudoeste 19 Sudoeste 0 -- -- 94
2019-08-15 00:00:00 24 10 Sudoeste 16 Sudoeste 0 -- -- 93
2019-08-14 23:00:00 24.4 14 Sudoeste 27 Sudoeste 0 -- -- 91
2019-08-14 22:00:00 24.4 13 Sur 24 Sudoeste 0 -- -- 91
2019-08-14 21:00:00 24.8 16 Sudoeste 30 Sudoeste 0 -- -- 85
2019-08-14 20:00:00 26 17 Sudoeste 28 Sur 0 -- -- 80
2019-08-14 19:00:00 26.8 18 Sur 31 Sur 0 -- -- 77
2019-08-14 18:00:00 27.3 23 Sur 30 Sur 0 -- -- 75
2019-08-14 17:00:00 28.1 19 Sur 30 Sur 0 -- -- 73
2019-08-14 16:00:00 28 19 Sur 31 Sur 0 -- -- 73
2019-08-14 15:00:00 27.3 19 Sur 26 Sur 0 -- -- 66
2019-08-14 14:00:00 27.2 14 Sur 22 Sur 0 -- -- 60
2019-08-14 13:00:00 27.5 12 Sur 17 Sur 0 -- -- 54
2019-08-14 12:00:00 27 3 Sur 8 Sudoeste 0 -- -- 46
2019-08-14 11:00:00 25.5 0 Calma 10 Norte 0 -- -- 50
2019-08-14 10:00:00 22.8 3 Noroeste 12 Norte 0 -- -- 63
2019-08-14 09:00:00 21.8 2 Noroeste 8 Noroeste 0 -- -- 75
2019-08-14 08:00:00 18.7 0 Calma 10 Sur 0 -- -- 81
2019-08-14 07:00:00 19.8 3 Norte 12 Norte 0 -- -- 67
2019-08-14 06:00:00 20.3 6 Norte 9 Noroeste 0 -- -- 71
2019-08-14 05:00:00 20.3 5 Oeste 8 Oeste 0 -- -- 76
2019-08-14 04:00:00 20.5 0 Calma 9 Noroeste 0 -- -- 78
2019-08-14 03:00:00 22.1 5 Noroeste 15 Oeste 0 -- -- 61
2019-08-14 02:00:00 21.8 4 Oeste 10 Oeste 0 -- -- 89
2019-08-14 01:00:00 22.1 5 Oeste 15 Sudoeste 0 -- -- 89
2019-08-14 00:00:00 22.5 9 Sudoeste 22 Sudoeste 0 -- -- 88
2019-08-13 23:00:00 22.9 15 Sudoeste 26 Sudoeste 0 -- -- 85
2019-08-13 22:00:00 22.7 13 Sudoeste 20 Sudoeste 0 -- -- 83
2019-08-13 21:00:00 22.8 13 Sudoeste 21 Sudoeste 0 -- -- 81
2019-08-13 20:00:00 24.4 13 Sudoeste 25 Sur 0 -- -- 69
2019-08-13 19:00:00 24.8 16 Sur 25 Sur 0 -- -- 62
2019-08-13 18:00:00 25.9 18 Sur 27 Sur 0 -- -- 58
2019-08-13 17:00:00 25.8 18 Sur 26 Sur 0 -- -- 53
2019-08-13 16:00:00 26.7 16 Sur 23 Sur 0 -- -- 50
2019-08-13 15:00:00 28 10 Sur 16 Sudoeste 0 -- -- 46
2019-08-13 14:00:00 27.1 0 Calma 8 Oeste 0 -- -- 42
2019-08-13 13:00:00 26.3 0 Calma 13 Noroeste 0 -- -- 42
2019-08-13 12:00:00 25.3 4 Noroeste 13 Noroeste 0 -- -- 45
2019-08-13 11:00:00 23.8 4 Oeste 19 Noroeste 0 -- -- 52
2019-08-13 10:00:00 22.3 9 Noroeste 25 Norte 0 -- -- 58
2019-08-13 09:00:00 20.5 12 Norte 22 Noroeste 0 -- -- 61
2019-08-13 08:00:00 19.5 6 Noroeste 17 Norte 0 -- -- 69
2019-08-13 07:00:00 19.5 8 Noroeste 23 Noroeste 0 -- -- 65
2019-08-13 06:00:00 19.8 13 Noroeste 22 Norte 0 -- -- 64
2019-08-13 05:00:00 20.3 11 Norte 24 Noroeste 0 -- -- 63
2019-08-13 04:00:00 20.5 11 Norte 18 Norte 0 -- -- 63
2019-08-13 03:00:00 21.1 2 Norte 18 Norte 0 -- -- 63
2019-08-13 02:00:00 21.3 0 Calma 18 Noroeste 0 -- -- 59
2019-08-13 01:00:00 20.9 5 Noroeste 22 Noroeste 0 -- -- 60
2019-08-13 00:00:00 22.1 10 Noroeste 23 Noroeste 0 -- -- 53
2019-08-12 23:00:00 22.6 8 Noroeste 14 Noroeste 0 -- -- 63
2019-08-12 22:00:00 24.1 0 Calma 8 Sur 0 -- -- 75
2019-08-12 21:00:00 24.4 6 Sur 8 Sur 0 -- -- 83
2019-08-12 20:00:00 26.1 7 Sur 18 Sudeste 0 -- -- 73
2019-08-12 19:00:00 26.8 14 Sudeste 26 Sudeste 0 -- -- 64
2019-08-12 18:00:00 26.9 19 Sudeste 29 Sudeste 0 -- -- 60
2019-08-12 17:00:00 27.6 13 Sudeste 25 Sudeste 0 -- -- 51
2019-08-12 16:00:00 30.6 6 Nordeste 21 Norte 0 -- -- 37
2019-08-12 15:00:00 29.6 8 Norte 30 Norte 0 -- -- 40
2019-08-12 14:00:00 29 10 Norte 26 Norte 0 -- -- 45
2019-08-12 13:00:00 26.7 13 Norte 35 Norte 0 -- -- 50
2019-08-12 12:00:00 24.4 21 Norte 33 Norte 0 -- -- 55
2019-08-12 11:00:00 23.3 18 Norte 36 Noroeste 0 -- -- 58
2019-08-12 10:00:00 22.8 21 Norte 40 Norte 0 -- -- 60
2019-08-12 09:00:00 22.5 23 Norte 43 Norte 0 -- -- 60
2019-08-12 08:00:00 22.5 24 Norte 38 Norte 0 -- -- 60
2019-08-12 07:00:00 23 22 Norte 39 Norte 0 -- -- 58
2019-08-12 06:00:00 23.7 19 Norte 35 Norte 0 -- -- 56
2019-08-12 05:00:00 24.1 18 Norte 26 Norte 0 -- -- 58
2019-08-12 04:00:00 23.4 0 Calma 13 Norte 0 -- -- 78
2019-08-12 03:00:00 22.9 10 Norte 27 Norte 0 -- -- 78
2019-08-12 02:00:00 25.8 0 Calma 10 Sur 0 -- -- 92
2019-08-12 01:00:00 26.5 0 Calma 0 Calma 0 -- -- 92
2019-08-12 00:00:00 25.3 0 Calma 2 Sudeste 0 -- -- 91
2019-08-11 23:00:00 26.4 0 Calma 0 Calma 0 -- -- 86
2019-08-11 22:00:00 26.8 0 Calma 5 Sur 0 -- -- 92
2019-08-11 21:00:00 27.1 4 Sur 9 Sudoeste 0 -- -- 91
2019-08-11 20:00:00 27.9 6 Sur 12 Sur 0 -- -- 87
2019-08-11 19:00:00 29.3 8 Sur 12 Sudoeste 0 -- -- 81
2019-08-11 18:00:00 29.1 5 Sudoeste 15 Sur 0 -- -- 78
2019-08-11 17:00:00 29.8 9 Sur 21 Sudeste 0 -- -- 76
2019-08-11 16:00:00 29.1 13 Sudeste 24 Sudeste 0 -- -- 76
2019-08-11 15:00:00 28.2 14 Sudeste 23 Sudeste 0 -- -- 77
2019-08-11 14:00:00 28.5 6 Sudeste 20 Sudeste 0 -- -- 75
2019-08-11 13:00:00 28.5 3 Este 15 Nordeste 0 -- -- 71
2019-08-11 12:00:00 28.2 3 Este 21 Nordeste 0 -- -- 70
2019-08-11 11:00:00 27.5 4 Este 18 Nordeste 0 -- -- 75
2019-08-11 10:00:00 26.9 2 Este 11 Nordeste 0 -- -- 83
2019-08-11 09:00:00 26.4 0 Calma 10 Nordeste 0 -- -- 86
2019-08-11 08:00:00 25.9 0 Calma 12 Nordeste 0 -- -- 87
2019-08-11 07:00:00 25.7 0 Calma 13 Nordeste 0 -- -- 88
2019-08-11 06:00:00 25.7 3 Nordeste 14 Nordeste 0 -- -- 89
2019-08-11 05:00:00 25.4 4 Nordeste 12 Nordeste 0 -- -- 91
2019-08-11 04:00:00 25.5 0 Calma 0 Calma 0 -- -- 91
2019-08-11 03:00:00 25.5 0 Calma 2 Nordeste 0 -- -- 88
2019-08-11 02:00:00 25.6 0 Calma 0 Calma 0 -- -- 89
2019-08-11 01:00:00 25.7 0 Calma 2 Nordeste 0 -- -- 89
2019-08-11 00:00:00 26.1 0 Calma 0 Calma 0 -- -- 89
2019-08-10 23:00:00 26.1 0 Calma 0 Calma 0 -- -- 89
2019-08-10 22:00:00 26.2 0 Calma 0 Calma 0 -- -- 88
2019-08-10 21:00:00 26.8 0 Calma 5 Nordeste 0 -- -- 86
2019-08-10 20:00:00 28 0 Calma 10 Sudeste 0 -- -- 81
2019-08-10 19:00:00 28.7 5 Sudeste 20 Sudeste 0 -- -- 78
2019-08-10 18:00:00 28.6 12 Sudeste 20 Sudeste 0 -- -- 77
2019-08-10 17:00:00 29.1 12 Sudeste 24 Sudeste 0 -- -- 77
2019-08-10 16:00:00 29.2 12 Sudeste 27 Sudeste 0 -- -- 74
2019-08-10 15:00:00 28.8 19 Sudeste 34 Sudeste 0 -- -- 76
2019-08-10 14:00:00 29.1 16 Sudeste 29 Sudeste 0 -- -- 74
2019-08-10 13:00:00 28.6 12 Este 28 Sudeste 0 -- -- 78
2019-08-10 12:00:00 28.7 4 Este 22 Nordeste 0 -- -- 81
2019-08-10 11:00:00 29.6 4 Nordeste 28 Norte 0 -- -- 44
2019-08-10 10:00:00 27.5 19 Norte 34 Norte 0 -- -- 49
2019-08-10 09:00:00 27.1 18 Norte 42 Norte 0 -- -- 50
2019-08-10 08:00:00 26.2 18 Norte 47 Norte 0 -- -- 54
2019-08-10 07:00:00 26.2 22 Norte 32 Norte 0 -- -- 58
2019-08-10 06:00:00 26.5 20 Norte 29 Norte 0 -- -- 58
2019-08-10 05:00:00 25.5 9 Norte 23 Noroeste 0 -- -- 70
2019-08-10 04:00:00 26.4 12 Norte 24 Norte 0 -- -- 66
2019-08-10 03:00:00 25.7 0 Calma -- -- 0 -- -- 93
2019-08-10 02:00:00 26.4 0 Calma 0 Calma 0 -- -- 93
2019-08-10 01:00:00 26.7 0 Calma 0 Calma 0 -- -- 93
2019-08-10 00:00:00 27 0 Calma -- -- 0 -- -- 91
2019-08-09 23:00:00 27.2 0 Calma -- -- 0 -- -- 90
2019-08-09 22:00:00 27.1 0 Calma 0 Calma 0 -- -- 87
2019-08-09 21:00:00 27.7 0 Calma 12 Sur 0 -- -- 86
2019-08-09 20:00:00 28.9 9 Sur 19 Sur 0 -- -- 82
2019-08-09 19:00:00 29.2 16 Sur 23 Sur 0 -- -- 77
2019-08-09 18:00:00 29.3 17 Sur 25 Sur 0 -- -- 78
2019-08-09 17:00:00 29.6 18 Sur 24 Sur 0 -- -- 75
2019-08-09 16:00:00 29.9 15 Sur 22 Sur 0 -- -- 77
2019-08-09 15:00:00 29.7 13 Sur 19 Sur 0 -- -- 77
2019-08-09 14:00:00 29.7 13 Sudeste 20 Sudeste 0 -- -- 79
2019-08-09 13:00:00 29.5 8 Sudeste 17 Sudeste 0 -- -- 77
2019-08-09 12:00:00 29.6 2 Nordeste 8 Nordeste 0 -- -- 77
2019-08-09 11:00:00 28.3 0 Calma 0 Calma 0 -- -- 83
2019-08-09 10:00:00 26.8 0 Calma 0 Calma 0 -- -- 91
2019-08-09 09:00:00 25.5 0 Calma -- -- 0 -- -- 94
2019-08-09 08:00:00 25.3 0 Calma -- -- 0 -- -- 94
2019-08-09 07:00:00 24.9 0 Calma -- -- 0 -- -- 94
2019-08-09 06:00:00 25 0 Calma 6 Sudeste 0 -- -- 94
2019-08-09 05:00:00 25.4 0 Calma 5 Sudeste 0 -- -- 94
2019-08-09 04:00:00 25.3 5 Sudeste 8 Sudeste 0 -- -- 94
2019-08-09 03:00:00 24.7 9 Sur 10 Sur 0 -- -- 94
2019-08-09 02:00:00 25.4 6 Sudeste 10 Sudeste 0 -- -- 93
2019-08-09 01:00:00 25.6 6 Sudeste 8 Sudeste 0 -- -- 93
2019-08-09 00:00:00 25.8 6 Sudeste 10 Sur 0 -- -- 92
2019-08-08 23:00:00 25.8 6 Sur 7 Sur 0 -- -- 91
2019-08-08 22:00:00 26.2 5 Sudoeste 12 Sudoeste 0 -- -- 88
2019-08-08 21:00:00 26.8 8 Sur 18 Sudoeste 0 -- -- 87
2019-08-08 20:00:00 28.5 13 Sur 22 Sur 0 -- -- 77
2019-08-08 19:00:00 29.5 14 Sur 27 Sur 0 -- -- 72
2019-08-08 18:00:00 29.6 17 Sur 28 Sur 0 -- -- 72
2019-08-08 17:00:00 29.7 19 Sur 27 Sudoeste 0 -- -- 77
2019-08-08 16:00:00 29.3 21 Sur 28 Sur 0 -- -- 76
2019-08-08 15:00:00 29.4 19 Sur 28 Sudoeste 0 -- -- 75
2019-08-08 14:00:00 29.7 18 Sur 24 Sur 0 -- -- 77
2019-08-08 13:00:00 29.5 15 Sur 21 Sur 0 -- -- 77
2019-08-08 12:00:00 29.1 13 Sur 18 Sur 0 -- -- 79
2019-08-08 11:00:00 28.3 8 Sur 13 Sur 0 -- -- 82
2019-08-08 10:00:00 27.2 3 Sur 9 Sudeste 0 -- -- 88
2019-08-08 09:00:00 26.1 0 Calma 0 Calma 0 -- -- 94
2019-08-08 08:00:00 25.6 0 Calma 0 Calma 0 -- -- 94
2019-08-08 07:00:00 24.8 0 Calma 0 Calma 0 -- -- 94
2019-08-08 06:00:00 25.5 0 Calma -- -- 0 -- -- 94
2019-08-08 05:00:00 25.2 0 Calma -- -- 0 -- -- 94
2019-08-08 04:00:00 25.7 0 Calma 3 Sur 0 -- -- 94
2019-08-08 03:00:00 25.7 2 Sur 9 Sur 0 -- -- 94
2019-08-08 02:00:00 25.6 0 Calma 2 Sur 0 -- -- 94
2019-08-08 01:00:00 25.9 0 Calma 0 Calma 0 -- -- 93
2019-08-08 00:00:00 26 0 Calma 3 Sur 0 -- -- 93
2019-08-07 23:00:00 26 0 Calma 0 Calma 0 -- -- 92
2019-08-07 22:00:00 26.2 0 Calma 0 Calma 0 -- -- 92
2019-08-07 21:00:00 27.2 0 Calma -- -- 0 -- -- 88
2019-08-07 20:00:00 27.7 0 Calma 10 Este 0 -- -- 86
2019-08-07 19:00:00 28 5 Sudeste 9 Este 0 -- -- 82
2019-08-07 18:00:00 28.6 6 Sudeste 10 Sur 0 -- -- 77
2019-08-07 17:00:00 29.4 5 Sur 12 Sur 0 -- -- 71
2019-08-07 16:00:00 28.8 8 Sur 20 Sudeste 0 -- -- 78
2019-08-07 15:00:00 29.4 12 Sudeste 20 Sudeste 0 -- -- 73
2019-08-07 14:00:00 28.8 11 Sudeste 17 Este 0 -- -- 75
2019-08-07 13:00:00 29 2 Este 12 Sudeste 0 -- -- 72
2019-08-07 12:00:00 29.4 0 Calma 10 Sudeste 0 -- -- 73
2019-08-07 11:00:00 28.2 0 Calma 7 Noroeste 0 -- -- 77
2019-08-07 10:00:00 27.1 4 Noroeste 8 Noroeste 0 -- -- 84
2019-08-07 09:00:00 26.6 0 Calma -- -- 0 -- -- 88
2019-08-07 08:00:00 25.6 0 Calma 2 Sudeste 0 -- -- 91
2019-08-07 07:00:00 24.7 0 Calma 9 Sudeste 0 -- -- 93
2019-08-07 06:00:00 25.2 0 Calma -- -- 0 -- -- 92
2019-08-07 05:00:00 25.1 3 Sudeste 9 Sudeste 0 -- -- 93
2019-08-07 04:00:00 24.8 6 Sudeste 10 Sudeste 0 -- -- 93
2019-08-07 03:00:00 24.8 8 Sudeste 10 Sudeste 0 -- -- 93
2019-08-07 02:00:00 24.8 0 Calma 8 Sur 0 -- -- 94
2019-08-07 01:00:00 24.9 6 Sur 10 Sur 0 -- -- 94
2019-08-07 00:00:00 24.9 8 Sur 10 Sur 0 -- -- 94
2019-08-06 23:00:00 25 7 Sur 9 Sur 0 -- -- 93
2019-08-06 22:00:00 25.6 6 Sur 8 Sur 0 -- -- 92
2019-08-06 21:00:00 26.3 5 Sur 8 Sur 0 -- -- 89
2019-08-06 20:00:00 27.1 5 Sur 10 Sudeste 0 -- -- 86
2019-08-06 19:00:00 28.5 8 Sur 12 Sur 0 -- -- 77
2019-08-06 18:00:00 27.2 8 Sur 14 Sur 0 -- -- 81
2019-08-06 17:00:00 28 9 Sur 13 Sudeste 0 -- -- 76
2019-08-06 16:00:00 29.7 8 Sur 14 Sudeste 0 -- -- 66
2019-08-06 15:00:00 29.2 10 Sudeste 17 Sudeste 0 -- -- 71
2019-08-06 14:00:00 28.8 0 Calma 0 Calma 0 -- -- 73
2019-08-06 13:00:00 28.3 0 Calma 0 Calma 0 -- -- 76
2019-08-06 12:00:00 26.7 0 Calma 2 Nordeste 0 -- -- 83
2019-08-06 11:00:00 26.7 0 Calma 0 Calma 0 -- -- 84
2019-08-06 10:00:00 26.7 0 Calma 0 Calma 0 -- -- 86
2019-08-06 09:00:00 25.9 0 Calma 0 Calma 0 -- -- 89
2019-08-06 08:00:00 25.1 0 Calma 0 Calma 0 -- -- 92
2019-08-06 07:00:00 24.9 0 Calma 0 Calma 0 -- -- 89
2019-08-06 06:00:00 25.1 0 Calma 0 Calma 0 -- -- 88
2019-08-06 05:00:00 25.1 0 Calma 9 Sudeste 0 -- -- 88
2019-08-06 04:00:00 24.6 5 Sudeste 8 Sudeste 0 -- -- 89
2019-08-06 03:00:00 24.6 5 Sudeste 9 Este 0 -- -- 91
2019-08-06 02:00:00 24.6 8 Sudeste 26 Sudeste 0 -- -- 91
2019-08-06 01:00:00 25 5 Sudeste 6 Sudeste 0 -- -- 91
2019-08-06 00:00:00 25.1 4 Sur 6 Sur 0 -- -- 92
2019-08-05 23:00:00 25.3 4 Sur 5 Sur 0 -- -- 89
2019-08-05 22:00:00 25.6 4 Sudeste 8 Sur 0 -- -- 88
2019-08-05 21:00:00 26.3 5 Sudeste 9 Sudeste 0 -- -- 84
2019-08-05 20:00:00 28.1 5 Sudeste 12 Sudeste 0 -- -- 72
2019-08-05 19:00:00 28.5 10 Sudeste 13 Sudeste 0 -- -- 67
2019-08-05 18:00:00 29.5 8 Sudeste 13 Este 0 -- -- 65
2019-08-05 17:00:00 28.8 10 Sudeste 18 Sudeste 0 -- -- 68
2019-08-05 16:00:00 29.1 10 Sudeste 18 Sudeste 0 -- -- 70
2019-08-05 15:00:00 28.5 9 Sur 14 Sur 0 -- -- 70
2019-08-05 14:00:00 28.9 8 Sur 17 Sudeste 0 -- -- 69
2019-08-05 13:00:00 28.3 8 Sudeste 15 Sur 0 -- -- 69
2019-08-05 12:00:00 28.2 10 Sudeste 14 Sudeste 0 -- -- 71
2019-08-05 11:00:00 27.8 3 Sudeste 9 Sudeste 0 -- -- 76
2019-08-05 10:00:00 26.9 0 Calma 0 Calma 0 -- -- 82
2019-08-05 09:00:00 25.3 0 Calma 0 Calma 0 -- -- 91
2019-08-05 08:00:00 24.8 0 Calma -- -- 0 -- -- 94
2019-08-05 07:00:00 24.4 0 Calma 0 Calma 0 -- -- 94
2019-08-05 06:00:00 24.3 0 Calma 3 Sudeste 0 -- -- 94
2019-08-05 05:00:00 24.5 4 Sudeste 7 Sur 0 -- -- 94
2019-08-05 04:00:00 24.1 7 Sudeste 8 Sudeste 0 -- -- 94
2019-08-05 03:00:00 24.2 6 Sur 9 Sur 0 -- -- 93
2019-08-05 02:00:00 24 8 Sur 9 Sur 0 -- -- 93
2019-08-05 01:00:00 24.7 0 Calma -- -- 0 -- -- 93
2019-08-05 00:00:00 25.2 0 Calma -- -- 0 -- -- 93
2019-08-04 23:00:00 25.4 0 Calma -- -- 0 -- -- 91
2019-08-04 22:00:00 25.5 0 Calma 7 Sudeste 0 -- -- 91
2019-08-04 21:00:00 25.9 2 Sudeste 13 Sudeste 0 -- -- 88
2019-08-04 20:00:00 26.2 8 Sudeste 19 Sudeste 0 -- -- 85
2019-08-04 19:00:00 27.2 13 Sudeste 18 Sudeste 0 -- -- 79
2019-08-04 18:00:00 28 14 Sudeste 24 Sudeste 0 -- -- 76
2019-08-04 17:00:00 28.3 17 Sur 26 Sudeste 0 -- -- 75
2019-08-04 16:00:00 28.5 17 Sur 27 Sudeste 0 -- -- 76
2019-08-04 15:00:00 28.4 14 Sur 24 Sudeste 0 -- -- 73
2019-08-04 14:00:00 29 12 Sur 18 Sur 0 -- -- 75
2019-08-04 13:00:00 28.1 10 Sur 17 Sur 0 -- -- 72
2019-08-04 12:00:00 27.8 9 Sur 13 Sur 0 -- -- 70
2019-08-04 11:00:00 27.3 7 Sur 10 Sur 0 -- -- 73
2019-08-04 10:00:00 26.1 3 Sur 9 Sudeste 0 -- -- 78
2019-08-04 09:00:00 24.8 0 Calma -- -- 0 -- -- 92
2019-08-04 08:00:00 23.8 0 Calma 5 Norte 0 -- -- 94
2019-08-04 07:00:00 23.2 0 Calma 7 Sudeste 0 -- -- 93
2019-08-04 06:00:00 23.6 6 Sudeste 10 Sudeste 0 -- -- 91
2019-08-04 05:00:00 23.5 7 Sudeste 11 Sur 0 -- -- 94
2019-08-04 04:00:00 23.4 9 Sur 10 Sur 0 -- -- 94
2019-08-04 03:00:00 24.1 7 Sudeste 9 Sur 0 -- -- 93
2019-08-04 02:00:00 24.1 7 Sudeste 10 Sudeste 0 -- -- 93
2019-08-04 01:00:00 23.9 6 Sur 14 Sur 0 -- -- 93
2019-08-04 00:00:00 23.9 9 Sur 14 Sur 0 -- -- 92
2019-08-03 23:00:00 24.2 8 Sur 14 Sur 0 -- -- 91
2019-08-03 22:00:00 24.4 6 Sur 12 Sur 0 -- -- 89
2019-08-03 21:00:00 25.1 4 Sur 19 Sur 0 -- -- 86
2019-08-03 20:00:00 26.7 14 Sur 24 Sur 0 -- -- 76
2019-08-03 19:00:00 27.6 15 Sur 31 Sur 0 -- -- 65
2019-08-03 18:00:00 27.8 18 Sur 30 Sur 0 -- -- 71
2019-08-03 17:00:00 28.3 17 Sur 24 Sudeste 0 -- -- 72
2019-08-03 16:00:00 28.1 16 Sudeste 25 Sudeste 0 -- -- 73
2019-08-03 15:00:00 28 16 Sur 23 Sur 0 -- -- 75
2019-08-03 14:00:00 27.8 15 Sudeste 24 Sudeste 0 -- -- 73
2019-08-03 13:00:00 27.3 14 Sudeste 21 Sudeste 0 -- -- 72
2019-08-03 12:00:00 27.3 9 Sudeste 15 Sudeste 0 -- -- 71
2019-08-03 11:00:00 26.6 3 Sur 10 Sudeste 0 -- -- 72
2019-08-03 10:00:00 25.5 0 Calma 0 Calma 0 -- -- 78
2019-08-03 09:00:00 24 0 Calma 0 Calma 0 -- -- 93
2019-08-03 08:00:00 22.5 0 Calma -- -- 0 -- -- 93
2019-08-03 07:00:00 22.1 0 Calma -- -- 0 -- -- 94
2019-08-03 06:00:00 21.6 0 Calma 0 Calma 0 -- -- 93
2019-08-03 05:00:00 22.3 0 Calma 0 Calma 0 -- -- 94
2019-08-03 04:00:00 22.3 0 Calma -- -- 0 -- -- 89
2019-08-03 03:00:00 22.8 0 Calma -- -- 0 -- -- 91
2019-08-03 02:00:00 23.3 0 Calma -- -- 0 -- -- 88
2019-08-03 01:00:00 23.4 0 Calma -- -- 0 -- -- 90
2019-08-03 00:00:00 23.8 0 Calma -- -- 0 -- -- 89
2019-08-02 23:00:00 24.3 0 Calma -- -- 0 -- -- 89
2019-08-02 22:00:00 24.6 0 Calma 9 Sudeste 0 -- -- 82
2019-08-02 21:00:00 25 7 Sudeste 12 Sur 0 -- -- 83
2019-08-02 20:00:00 26.8 8 Sur 15 Sur 0 -- -- 72
2019-08-02 19:00:00 27.8 10 Sur 18 Sur 0 -- -- 66
2019-08-02 18:00:00 28.2 13 Sur 21 Sur 0 -- -- 62
2019-08-02 17:00:00 28.3 16 Sur 24 Sur 0 -- -- 60
2019-08-02 16:00:00 28.8 17 Sur 26 Sur 0 -- -- 57
2019-08-02 15:00:00 28.9 15 Sur 21 Sur 0 -- -- 50
2019-08-02 14:00:00 29.3 14 Sur 21 Sur 0 -- -- 48
2019-08-02 13:00:00 30.4 2 Sudeste 9 Norte 0 -- -- 39
2019-08-02 12:00:00 29.3 4 Norte 17 Norte 0 -- -- 49
2019-08-02 11:00:00 27.2 12 Norte 21 Noroeste 0 -- -- 60
2019-08-02 10:00:00 25.3 11 Noroeste 21 Norte 0 -- -- 69
2019-08-02 09:00:00 23.8 9 Noroeste 18 Norte 0 -- -- 77
2019-08-02 08:00:00 23 10 Norte 18 Norte 0 -- -- 78
2019-08-02 07:00:00 21.5 0 Calma 3 Noroeste 0 -- -- 86
2019-08-02 06:00:00 22.3 0 Calma 3 Noroeste 0 -- -- 86
2019-08-02 05:00:00 22.5 0 Calma 3 Norte 0 -- -- 89
2019-08-02 04:00:00 22.8 0 Calma 0 Calma 0 -- -- 90
2019-08-02 03:00:00 23.1 0 Calma 0 Calma 0 -- -- 87
2019-08-02 02:00:00 23.4 0 Calma 0 Calma 0 -- -- 89
2019-08-02 01:00:00 23.7 0 Calma 0 Calma 0 -- -- 90
2019-08-02 00:00:00 23.7 0 Calma 0 Calma 0 -- -- 85
2019-08-01 23:00:00 24.1 0 Calma 0 Calma 0 -- -- 85
2019-08-01 22:00:00 24.3 0 Calma 3 Sudeste 0 -- -- 82
2019-08-01 21:00:00 25.3 0 Calma 11 Nordeste 0 -- -- 77
2019-08-01 20:00:00 26.3 4 Nordeste 15 Nordeste 0 -- -- 70
2019-08-01 19:00:00 27.2 4 Nordeste 14 Nordeste 0 -- -- 66
2019-08-01 18:00:00 27.7 2 Este 15 Sudeste 0 -- -- 64
2019-08-01 17:00:00 28 2 Sudeste 12 Sudeste 0 -- -- 61
2019-08-01 16:00:00 27.6 2 Este 15 Nordeste 0 -- -- 64
2019-08-01 15:00:00 27.2 4 Nordeste 23 Nordeste 0 -- -- 61
2019-08-01 14:00:00 27.2 7 Nordeste 20 Nordeste 0 -- -- 60
2019-08-01 13:00:00 27.3 0 Calma 3 Este 0 -- -- 62
2019-08-01 12:00:00 26.4 0 Calma 3 Norte 0 -- -- 72
2019-08-01 11:00:00 25.9 0 Calma 0 Calma 0 -- -- 73
2019-08-01 10:00:00 24.8 0 Calma 3 Noroeste 0 -- -- 81
2019-08-01 09:00:00 23.9 0 Calma 0 Calma 0 -- -- 86
2019-08-01 08:00:00 23.2 0 Calma 0 Calma 0 -- -- 91
2019-08-01 07:00:00 22.6 0 Calma 0 Calma 0 -- -- 89
2019-08-01 06:00:00 22.6 0 Calma 0 Calma 0 -- -- 91
2019-08-01 05:00:00 22.8 0 Calma 0 Calma 0 -- -- 87
2019-08-01 04:00:00 23.2 0 Calma 0 Calma 0 -- -- 87
2019-08-01 03:00:00 23.3 0 Calma 0 Calma 0 -- -- 85
2019-08-01 02:00:00 23.2 0 Calma -- -- 0 -- -- 88
2019-08-01 01:00:00 23.4 0 Calma 0 Calma 0 -- -- 86
2019-08-01 00:00:00 23.7 0 Calma 0 Calma 0 -- -- 83
2019-07-31 23:00:00 24 0 Calma 0 Calma 0 -- -- 85
2019-07-31 22:00:00 24.1 0 Calma 6 Nordeste 0 -- -- 83
2019-07-31 21:00:00 24.3 0 Calma 10 Sudeste 0 -- -- 83
2019-07-31 20:00:00 25.2 7 Sudeste 18 Sudeste 0 -- -- 77
2019-07-31 19:00:00 26 10 Sudeste 20 Sudeste 0 -- -- 75
2019-07-31 18:00:00 26 9 Sudeste 22 Sudeste 0 -- -- 72
2019-07-31 17:00:00 26.6 13 Sudeste 26 Este 0 -- -- 70
2019-07-31 16:00:00 26.6 19 Sudeste 29 Sudeste 0 -- -- 70
2019-07-31 15:00:00 26.9 5 Este 23 Sudeste 0 -- -- 67
2019-07-31 14:00:00 27.6 4 Sudeste 16 Nordeste 0 -- -- 60
2019-07-31 13:00:00 27.4 3 Nordeste 13 Norte 0 -- -- 51
2019-07-31 12:00:00 25.3 5 Norte 23 Norte 0 -- -- 55
2019-07-31 11:00:00 24.1 14 Norte 37 Norte 0 -- -- 54
2019-07-31 10:00:00 22.5 22 Norte 36 Norte 0 -- -- 55
2019-07-31 09:00:00 21.8 16 Norte 30 Noroeste 0 -- -- 58
2019-07-31 08:00:00 21.4 14 Noroeste 26 Norte 0 -- -- 58
2019-07-31 07:00:00 21.4 13 Noroeste 26 Norte 0 -- -- 56
2019-07-31 06:00:00 22 14 Noroeste 27 Noroeste 0 -- -- 55
2019-07-31 05:00:00 22.4 14 Noroeste 29 Noroeste 0 -- -- 54
2019-07-31 04:00:00 22.3 14 Noroeste 26 Noroeste 0 -- -- 55
2019-07-31 03:00:00 22.6 13 Norte 21 Norte 0 -- -- 58
2019-07-31 02:00:00 22.9 10 Norte 17 Norte 0 -- -- 87
2019-07-31 01:00:00 24.6 0 Calma -- -- 0 -- -- 88
2019-07-31 00:00:00 24.9 0 Calma 4 Nordeste 0 -- -- 88
2019-07-30 23:00:00 24.8 0 Calma 3 Nordeste 0 -- -- 86
2019-07-30 22:00:00 24.9 0 Calma 7 Sudeste 0 -- -- 86
2019-07-30 21:00:00 25.4 4 Sudeste 13 Sudeste 0 -- -- 83
2019-07-30 20:00:00 25.7 9 Sur 20 Sur 0 -- -- 78
2019-07-30 19:00:00 27.2 14 Sur 26 Sudeste 0 -- -- 67
2019-07-30 18:00:00 27.6 22 Sudeste 32 Sudeste 0 -- -- 65
2019-07-30 17:00:00 27.6 22 Sudeste 31 Este 0 -- -- 60
2019-07-30 16:00:00 28.4 18 Sudeste 28 Sudeste 0 -- -- 52
2019-07-30 15:00:00 29.4 0 Calma 16 Norte 0 -- -- 48
2019-07-30 14:00:00 30 7 Norte 22 Noroeste 0 -- -- 42
2019-07-30 13:00:00 28.1 10 Norte 28 Norte 0 -- -- 48
2019-07-30 12:00:00 26.3 17 Norte 30 Norte 0 -- -- 51
2019-07-30 11:00:00 25.3 17 Norte 28 Norte 0 -- -- 56
2019-07-30 10:00:00 24 18 Norte 28 Norte 0 -- -- 59
2019-07-30 09:00:00 23.2 13 Norte 28 Norte 0 -- -- 60
2019-07-30 08:00:00 22.8 15 Norte 29 Noroeste 0 -- -- 63
2019-07-30 07:00:00 22.5 10 Norte 23 Noroeste 0 -- -- 69
2019-07-30 06:00:00 22.6 9 Norte 18 Norte 0 -- -- 71
2019-07-30 05:00:00 22.9 8 Norte 21 Norte 0 -- -- 74
2019-07-30 04:00:00 23.6 6 Norte 11 Norte 0 -- -- 94
2019-07-30 03:00:00 24.3 3 Sudoeste 13 Sur 0 -- -- 93
2019-07-30 02:00:00 23.8 10 Sur 15 Sur 0 -- -- 93
2019-07-30 01:00:00 24.1 7 Sur 14 Sur 0 -- -- 93
2019-07-30 00:00:00 24.3 10 Sur 14 Sur 0 -- -- 93
2019-07-29 23:00:00 24.5 6 Sur 15 Sur 0 -- -- 92
2019-07-29 22:00:00 24.9 9 Sudoeste 22 Sudoeste 0 -- -- 91
2019-07-29 21:00:00 25.5 14 Sur 23 Sudoeste 0 -- -- 87
2019-07-29 20:00:00 26.7 14 Sur 26 Sur 0 -- -- 80
2019-07-29 19:00:00 27.4 17 Sur 25 Sur 0 -- -- 71
2019-07-29 18:00:00 28.2 14 Sur 24 Sur 0 -- -- 75
2019-07-29 17:00:00 28.2 0 Calma 0 Calma 0 -- -- 76
2019-07-29 16:00:00 28.3 0 Calma 3 Sur 0 -- -- 76
2019-07-29 15:00:00 28.3 0 Calma 3 Sur 0 -- -- 73
2019-07-29 14:00:00 27.6 0 Calma 0 Calma 0 -- -- 73
2019-07-29 13:00:00 27.6 0 Calma 3 Sur 0 -- -- 73
2019-07-29 12:00:00 26.5 0 Calma 0 Calma 0 -- -- 69
2019-07-29 11:00:00 26.1 0 Calma 0 Calma 0 -- -- 70
2019-07-29 10:00:00 24.9 0 Calma 0 Calma 0 -- -- 76
2019-07-29 09:00:00 22.9 0 Calma 0 Calma 0 -- -- 85
2019-07-29 08:00:00 20.7 0 Calma 0 Calma 0 -- -- 88
2019-07-29 07:00:00 20.5 0 Calma -- -- 0 -- -- 92
2019-07-29 06:00:00 20.3 0 Calma 0 Calma 0 -- -- 91
2019-07-29 05:00:00 20.6 0 Calma 6 Oeste 0 -- -- 83
2019-07-29 04:00:00 20.6 0 Calma 6 Noroeste 0 -- -- 83
2019-07-29 03:00:00 20.8 0 Calma 7 Oeste 0 -- -- 82
2019-07-29 02:00:00 21.6 5 Oeste 12 Sudoeste 0 -- -- 81
2019-07-29 01:00:00 21.6 6 Sudoeste 14 Sudoeste 0 -- -- 86
2019-07-29 00:00:00 22 8 Sudoeste 14 Sudoeste 0 -- -- 85
2019-07-28 23:00:00 22.4 11 Sudoeste 16 Sudoeste 0 -- -- 82
2019-07-28 22:00:00 22.6 12 Sudoeste 20 Sur 0 -- -- 78
2019-07-28 21:00:00 23.5 13 Sur 23 Sur 0 -- -- 71
2019-07-28 20:00:00 25 14 Sur 27 Sur 0 -- -- 63
2019-07-28 19:00:00 25.9 17 Sur 30 Sudoeste 0 -- -- 60
2019-07-28 18:00:00 25.7 22 Sur 34 Sur 0 -- -- 59
2019-07-28 17:00:00 26.6 23 Sur 30 Sudoeste 0 -- -- 54
2019-07-28 16:00:00 27.5 19 Sur 25 Sur 0 -- -- 51
2019-07-28 15:00:00 30.7 4 Noroeste 19 Noroeste 0 -- -- 40
2019-07-28 14:00:00 28.2 9 Noroeste 26 Norte 0 -- -- 45
2019-07-28 13:00:00 26.5 14 Noroeste 35 Noroeste 0 -- -- 48
2019-07-28 12:00:00 24.8 14 Noroeste 33 Norte 0 -- -- 53
2019-07-28 11:00:00 23.2 20 Norte 39 Noroeste 0 -- -- 58
2019-07-28 10:00:00 22.2 13 Noroeste 36 Norte 0 -- -- 59
2019-07-28 09:00:00 21.1 24 Noroeste 42 Norte 0 -- -- 59
2019-07-28 08:00:00 20.1 13 Noroeste 33 Norte 0 -- -- 63
2019-07-28 07:00:00 19.7 19 Noroeste 35 Noroeste 0 -- -- 65
2019-07-28 06:00:00 20.3 8 Norte 52 Noroeste 0 -- -- 61
2019-07-28 05:00:00 20.9 23 Noroeste 56 Noroeste 0 -- -- 59
2019-07-28 04:00:00 21.3 31 Noroeste 62 Norte 0 -- -- 59
2019-07-28 03:00:00 21.4 21 Norte 44 Noroeste 0 -- -- 59
2019-07-28 02:00:00 21.9 18 Noroeste 38 Noroeste 0 -- -- 57
2019-07-28 01:00:00 21.8 19 Noroeste 45 Noroeste 0 -- -- 59
2019-07-28 00:00:00 22.8 19 Noroeste 55 Oeste 0 -- -- 55
2019-07-27 23:00:00 23.3 11 Noroeste -- -- -- -- -- 57
2019-07-26 12:00:00 27.9 0 Calma 10 Nordeste 0 -- -- 80
2019-07-26 11:00:00 28.1 3 Nordeste 10 Noroeste 0 -- -- 77
2019-07-26 10:00:00 27.4 0 Calma 0 Calma 0 -- -- 82
2019-07-26 09:00:00 26.4 0 Calma -- -- 0 -- -- 91
2019-07-26 08:00:00 25.2 0 Calma 0 Calma 0 -- -- 92
2019-07-26 07:00:00 24.6 0 Calma 5 Sudeste 0 -- -- 93
2019-07-26 06:00:00 24.6 4 Sudeste 9 Sudeste 0 -- -- 92
2019-07-26 05:00:00 24.5 7 Sudeste 9 Sudeste 0 -- -- 92
2019-07-26 04:00:00 25.1 4 Sudeste 8 Sudeste 0 -- -- 92
2019-07-26 03:00:00 24.6 7 Sudeste 10 Sudeste 0 -- -- 92
2019-07-26 02:00:00 24.8 8 Sudeste 9 Sudeste 0 -- -- 92
2019-07-26 01:00:00 25.1 7 Sudeste 10 Sudeste 0 -- -- 92
2019-07-26 00:00:00 25.5 5 Sudeste 9 Sudeste 0 -- -- 91